Time;durP1;ratioP1;P1;durP2;ratioP2;P2;SDS_P1;SDS_P2;PMS_P1;PMS_P2;Temp;Humidity;BMP_temperature;BMP_pressure;BME280_temperature;BME280_humidity;BME280_pressure;Samples;Min_cycle;Max_cycle;Signal;HPM_P1;HPM_P2
2022/10/28 00:01:28;;;;;;;25.40;13.67;;;;;;;;;;5049027;28;20168;-92
2022/10/28 00:03:58;;;;;;;34.33;15.77;;;7.90;99.90;;;;;;5062694;28;20191;-94
2022/10/28 00:06:56;;;;;;;29.00;14.40;;;7.90;99.90;;;;;;5643677;22;20243;-92
2022/10/28 00:09:29;;;;;;;33.33;15.63;;;7.90;99.90;;;;;;5060320;28;20145;-93
2022/10/28 00:12:10;;;;;;;32.53;15.43;;;7.80;99.90;;;;;;5043977;28;20171;-93
2022/10/28 00:14:46;;;;;;;25.03;12.47;;;7.80;99.90;;;;;;5043826;28;20133;-93
2022/10/28 00:17:13;;;;;;;25.90;12.73;;;;;;;;;;5043922;28;20140;-93
2022/10/28 00:19:39;;;;;;;33.40;16.43;;;;;;;;;;5042279;28;20168;-95
2022/10/28 00:22:05;;;;;;;22.53;12.33;;;;;;;;;;5042298;28;20184;-93
2022/10/28 00:24:31;;;;;;;20.53;12.87;;;;;;;;;;5032308;28;20176;-93
2022/10/28 00:27:03;;;;;;;22.07;11.70;;;;;;;;;;5054343;22;20297;-95
2022/10/28 00:29:31;;;;;;;26.77;12.53;;;;;;;;;;5061797;28;20176;-93
2022/10/28 00:31:57;;;;;;;30.50;13.63;;;;;;;;;;5078711;28;20167;-93
2022/10/28 00:34:23;;;;;;;28.97;13.37;;;;;;;;;;5061191;28;20182;-94
2022/10/28 00:36:54;;;;;;;29.53;12.77;;;;;;;;;;5040020;28;20192;-94
2022/10/28 00:39:23;;;;;;;26.70;13.00;;;7.60;99.90;;;;;;5039287;28;20310;-96
2022/10/28 00:41:54;;;;;;;24.73;13.80;;;7.60;99.90;;;;;;5038438;28;20183;-94
2022/10/28 00:44:42;;;;;;;22.90;11.63;;;4.20;99.90;;;;;;5040299;28;20172;-95
2022/10/28 00:47:36;;;;;;;26.13;12.60;;;7.60;99.90;;;;;;5039616;28;20554;-94
2022/10/28 00:50:17;;;;;;;25.40;12.63;;;7.60;99.90;;;;;;5039197;28;20180;-95
2022/10/28 00:52:47;;;;;;;26.47;12.23;;;7.60;99.90;;;;;;5056984;28;20516;-94
2022/10/28 00:55:15;;;;;;;29.87;13.67;;;7.60;99.90;;;;;;5039489;28;20180;-94
2022/10/28 00:57:41;;;;;;;18.80;10.97;;;;;;;;;;5022152;28;20180;-94
2022/10/28 01:00:08;;;;;;;25.30;12.70;;;7.60;99.90;;;;;;5022175;28;20194;-94
2022/10/28 01:02:47;;;;;;;28.17;12.67;;;7.50;99.90;;;;;;5039577;28;20176;-93
2022/10/28 01:05:15;;;;;;;19.37;11.30;;;7.50;99.90;;;;;;5038781;28;20168;-94
2022/10/28 01:07:42;;;;;;;25.83;12.17;;;7.50;99.90;;;;;;5036829;28;20188;-94
2022/10/28 01:10:09;;;;;;;27.47;12.73;;;7.50;99.90;;;;;;5037351;28;20171;-94
2022/10/28 01:12:53;;;;;;;25.17;13.60;;;7.50;99.90;;;;;;5037162;28;20176;-94
2022/10/28 01:15:53;;;;;;;19.10;11.10;;;7.50;99.90;;;;;;5037362;28;20184;-94
2022/10/28 01:18:47;;;;;;;16.27;10.67;;;7.50;99.90;;;;;;4986346;28;20199;-94
2022/10/28 01:21:25;;;;;;;19.23;10.53;;;7.50;99.90;;;;;;5037078;28;20198;-94
2022/10/28 01:24:41;;;;;;;19.97;10.67;;;7.50;99.90;;;;;;5037698;28;20182;-94
2022/10/28 01:27:28;;;;;;;19.27;10.47;;;8.00;99.90;;;;;;4983211;28;20703;-94
2022/10/28 01:30:13;;;;;;;17.13;9.73;;;7.60;99.90;;;;;;5055178;28;20176;-95
2022/10/28 01:33:20;;;;;;;20.67;11.03;;;7.50;99.90;;;;;;5041457;28;20180;-94
2022/10/28 01:36:14;;;;;;;;;;;;;;;;;;;;;
2022/10/28 01:38:53;;;;;;;21.00;10.97;;;7.60;99.90;;;;;;5066533;28;20196;-93
2022/10/28 01:41:52;;;;;;;24.57;10.40;;;7.60;99.90;;;;;;5039523;28;20634;-94
2022/10/28 01:44:28;;;;;;;21.87;10.20;;;7.60;99.90;;;;;;5037625;28;20179;-93
2022/10/28 01:47:20;;;;;;;33.30;12.30;;;7.60;99.90;;;;;;5037632;28;20206;-95
2022/10/28 01:50:06;;;;;;;21.10;10.30;;;7.60;99.90;;;;;;5061678;28;20214;-95
2022/10/28 01:52:33;;;;;;;16.73;10.47;;;;;;;;;;5046479;28;20183;-95
2022/10/28 01:55:12;;;;;;;22.93;11.97;;;7.80;99.90;;;;;;5038698;28;20180;-95
2022/10/28 01:57:40;;;;;;;22.90;10.27;;;7.90;99.90;;;;;;5039824;28;20183;-95
2022/10/28 02:00:25;;;;;;;22.60;10.90;;;7.90;99.90;;;;;;5043661;28;20176;-95
2022/10/28 02:02:51;;;;;;;24.40;11.50;;;;;;;;;;5024839;28;20617;-96
2022/10/28 02:05:45;;;;;;;26.60;13.27;;;7.80;99.90;;;;;;5037124;28;20204;-94
2022/10/28 02:08:17;;;;;;;21.87;10.90;;;7.80;99.90;;;;;;5045543;28;20160;-94
2022/10/28 02:11:14;;;;;;;18.27;11.27;;;7.70;99.90;;;;;;5049347;28;20183;-92
2022/10/28 02:13:51;;;;;;;19.53;10.43;;;7.60;99.90;;;;;;5003753;28;20187;-93
2022/10/28 02:16:42;;;;;;;18.23;9.93;;;7.50;99.90;;;;;;5060548;28;20179;-93
2022/10/28 02:19:42;;;;;;;22.77;11.10;;;7.50;99.90;;;;;;5079731;28;20160;-91
2022/10/28 02:22:21;;;;;;;17.23;10.07;;;7.40;99.90;;;;;;5036367;28;20199;-94
2022/10/28 02:25:05;;;;;;;23.43;10.97;;;7.40;99.90;;;;;;5059860;28;20167;-94
2022/10/28 02:27:48;;;;;;;20.70;11.23;;;7.40;99.90;;;;;;5055594;28;20239;-94
2022/10/28 02:30:20;;;;;;;22.63;9.23;;;7.40;99.90;;;;;;5053651;28;20794;-95
2022/10/28 02:32:51;;;;;;;16.53;9.57;;;7.40;99.90;;;;;;5042488;28;20203;-93
2022/10/28 02:35:31;;;;;;;22.13;10.80;;;7.40;99.90;;;;;;5041821;28;20183;-94
2022/10/28 02:38:01;;;;;;;18.67;10.90;;;7.30;99.90;;;;;;5041272;28;20179;-94
2022/10/28 02:40:31;;;;;;;26.03;11.23;;;7.30;99.90;;;;;;5057096;28;20172;-92
2022/10/28 02:43:02;;;;;;;17.53;9.47;;;7.30;99.90;;;;;;5039218;28;20657;-93
2022/10/28 02:45:34;;;;;;;20.20;10.67;;;7.30;99.90;;;;;;5039395;28;20207;-94
2022/10/28 02:48:14;;;;;;;21.30;10.67;;;7.30;99.90;;;;;;5039363;28;20322;-94
2022/10/28 02:50:46;;;;;;;20.17;11.33;;;7.30;99.90;;;;;;5039103;28;20625;-94
2022/10/28 02:53:23;;;;;;;28.60;10.43;;;7.20;99.90;;;;;;5039364;28;20183;-94
2022/10/28 02:55:53;;;;;;;17.70;10.93;;;7.20;99.90;;;;;;5039033;28;20179;-93
2022/10/28 02:58:22;;;;;;;23.20;11.57;;;;;;;;;;5039334;28;20648;-93
2022/10/28 03:00:50;;;;;;;17.93;9.73;;;7.40;99.90;;;;;;5038711;28;20535;-91
2022/10/28 03:03:26;;;;;;;17.37;9.67;;;7.40;99.90;;;;;;5038338;28;20187;-92
2022/10/28 03:05:52;;;;;;;22.13;10.90;;;;;;;;;;5038739;28;20214;-92
2022/10/28 03:08:18;;;;;;;16.40;9.17;;;;;;;;;;5038943;28;20253;-91
2022/10/28 03:10:44;;;;;;;19.13;10.93;;;;;;;;;;5038701;28;20250;-93
2022/10/28 03:13:10;;;;;;;22.70;10.33;;;;;;;;;;5038560;28;20238;-92
2022/10/28 03:15:36;;;;;;;23.77;11.07;;;;;;;;;;5039321;28;20526;-94
2022/10/28 03:18:02;;;;;;;18.63;10.87;;;;;;;;;;5056246;28;20178;-93
2022/10/28 03:20:31;;;;;;;22.77;11.47;;;7.50;99.90;;;;;;5039056;28;20176;-93
2022/10/28 03:22:57;;;;;;;20.53;11.77;;;;;;;;;;5038490;28;20184;-92
2022/10/28 03:25:32;;;;;;;21.40;11.03;;;7.50;99.90;;;;;;5039623;28;20644;-92
2022/10/28 03:27:58;;;;;;;24.97;12.10;;;;;;;;;;5038081;28;20235;-91
2022/10/28 03:30:24;;;;;;;23.03;11.93;;;;;;;;;;5055962;28;20179;-93
2022/10/28 03:32:52;;;;;;;22.50;12.20;;;;;;;;;;5038833;28;20180;-92
2022/10/28 03:35:19;;;;;;;21.87;11.77;;;;;;;;;;5056071;28;20305;-92
2022/10/28 03:37:45;;;;;;;22.93;10.77;;;;;;;;;;5040730;28;20216;-93
2022/10/28 03:40:14;;;;;;;18.43;11.17;;;7.70;99.90;;;;;;5038763;28;20179;-93
2022/10/28 03:42:43;;;;;;;16.33;9.93;;;;;;;;;;5038552;28;20179;-93
2022/10/28 03:45:09;;;;;;;18.43;10.60;;;;;;;;;;5038513;28;20271;-93
2022/10/28 03:47:35;;;;;;;28.60;11.30;;;;;;;;;;5042385;28;20230;-93
2022/10/28 03:50:01;;;;;;;19.50;10.50;;;;;;;;;;5041129;28;20187;-93
2022/10/28 03:52:28;;;;;;;19.93;11.23;;;;;;;;;;5039947;28;20183;-93
2022/10/28 03:54:54;;;;;;;22.63;10.43;;;;;;;;;;5040401;28;20188;-92
2022/10/28 03:57:20;;;;;;;24.27;11.47;;;;;;;;;;5023209;28;20202;-93
2022/10/28 03:59:46;;;;;;;28.20;12.57;;;;;;;;;;5052108;28;20195;-93
2022/10/28 04:02:14;;;;;;;24.30;11.73;;;;;;;;;;5060694;28;20243;-93
2022/10/28 04:04:40;;;;;;;30.57;13.33;;;;;;;;;;5034655;28;20211;-93
2022/10/28 04:07:06;;;;;;;24.47;12.77;;;;;;;;;;5037627;28;20693;-93
2022/10/28 04:09:32;;;;;;;23.10;10.50;;;;;;;;;;5037442;28;20184;-94
2022/10/28 04:12:00;;;;;;;27.73;11.27;;;8.00;99.90;;;;;;5055737;28;20257;-92
2022/10/28 04:14:27;;;;;;;20.30;10.90;;;;;;;;;;5021179;28;20176;-92
2022/10/28 04:16:53;;;;;;;21.93;10.67;;;;;;;;;;5037426;28;20217;-92
2022/10/28 04:19:19;;;;;;;32.93;14.37;;;;;;;;;;5037445;28;20187;-93
2022/10/28 04:21:47;;;;;;;25.40;12.37;;;8.10;99.90;;;;;;5037614;28;20180;-93
2022/10/28 04:24:15;;;;;;;25.43;9.97;;;;;;;;;;5021031;28;20180;-92
2022/10/28 04:26:41;;;;;;;18.47;10.90;;;;;;;;;;5022480;28;20222;-94
2022/10/28 04:29:07;;;;;;;20.97;10.47;;;;;;;;;;5038765;28;20676;-94
2022/10/28 04:31:33;;;;;;;24.37;11.53;;;;;;;;;;5038048;28;20208;-93
2022/10/28 04:34:04;;;;;;;20.93;11.03;;;8.10;99.90;;;;;;5020862;28;20180;-92
2022/10/28 04:36:33;;;;;;;25.00;10.80;;;8.10;99.90;;;;;;5021480;28;20191;-93
2022/10/28 04:38:59;;;;;;;19.40;9.87;;;;;;;;;;5036490;28;20180;-92
2022/10/28 04:41:25;;;;;;;18.37;9.80;;;;;;;;;;5037200;28;20195;-92
2022/10/28 04:43:53;;;;;;;21.00;11.13;;;;;;;;;;5055342;28;20184;-92
2022/10/28 04:46:19;;;;;;;24.03;10.67;;;;;;;;;;5047431;28;20235;-93
2022/10/28 04:48:46;;;;;;;22.40;11.50;;;8.20;99.90;;;;;;5038019;28;20180;-94
2022/10/28 04:51:12;;;;;;;23.53;11.33;;;;;;;;;;5037755;28;20180;-92
2022/10/28 04:53:38;;;;;;;18.37;10.20;;;;;;;;;;5036780;28;20298;-93
2022/10/28 04:56:04;;;;;;;19.10;10.57;;;;;;;;;;5039539;28;20190;-92
2022/10/28 04:58:33;;;;;;;17.07;8.47;;;;;;;;;;5050182;28;20240;-92
2022/10/28 05:01:12;;;;;;;20.53;10.50;;;8.30;99.90;;;;;;5035550;28;20199;-93
2022/10/28 05:03:40;;;;;;;16.17;8.90;;;;;;;;;;5050103;28;20231;-90
2022/10/28 05:06:06;;;;;;;18.00;8.93;;;;;;;;;;5044319;28;20347;-95
2022/10/28 05:08:33;;;;;;;18.07;8.60;;;;;;;;;;5041093;28;20191;-93
2022/10/28 05:11:15;;;;;;;22.57;9.67;;;8.30;99.90;;;;;;5039893;28;20174;-95
2022/10/28 05:13:41;;;;;;;15.57;9.80;;;;;;;;;;5017570;28;20241;-93
2022/10/28 05:16:18;;;;;;;17.97;10.20;;;8.30;99.90;;;;;;5031782;28;20276;-93
2022/10/28 05:18:47;;;;;;;22.47;12.10;;;;;;;;;;5048735;28;20255;-92
2022/10/28 05:21:16;;;;;;;27.20;12.57;;;;;;;;;;5054419;28;20180;-93
2022/10/28 05:23:42;;;;;;;25.17;10.63;;;;;;;;;;5025532;28;20345;-93
2022/10/28 05:26:08;;;;;;;19.67;9.37;;;;;;;;;;5028613;28;20216;-91
2022/10/28 05:28:34;;;;;;;17.57;9.07;;;;;;;;;;5035079;28;20255;-92
2022/10/28 05:31:00;;;;;;;17.20;8.77;;;;;;;;;;5041283;28;20217;-93
2022/10/28 05:33:26;;;;;;;20.50;10.63;;;;;;;;;;5041767;28;20194;-92
2022/10/28 05:35:52;;;;;;;18.80;9.50;;;;;;;;;;5040416;28;20202;-91
2022/10/28 05:38:18;;;;;;;20.30;9.50;;;;;;;;;;5040256;28;20196;-92
2022/10/28 05:40:44;;;;;;;20.50;9.80;;;;;;;;;;5056076;28;20188;-92
2022/10/28 05:43:13;;;;;;;28.37;13.73;;;;;;;;;;5065160;28;20195;-91
2022/10/28 05:45:39;;;;;;;15.20;8.10;;;;;;;;;;5043735;28;20203;-92
2022/10/28 05:48:05;;;;;;;18.30;8.73;;;;;;;;;;5041598;28;20176;-91
2022/10/28 05:50:31;;;;;;;23.60;10.03;;;;;;;;;;5035479;28;20188;-92
2022/10/28 05:52:57;;;;;;;23.97;10.57;;;;;;;;;;5053395;28;20204;-89
2022/10/28 05:55:30;;;;;;;17.70;8.67;;;8.70;99.90;;;;;;5047935;28;20206;-94
2022/10/28 05:57:58;;;;;;;18.73;9.80;;;8.70;99.90;;;;;;5068862;28;20248;-93
2022/10/28 06:00:25;;;;;;;22.30;9.37;;;8.70;99.90;;;;;;5055331;28;20645;-92
2022/10/28 06:03:01;;;;;;;23.10;11.53;;;8.80;99.90;;;;;;5047972;28;20180;-93
2022/10/28 06:05:30;;;;;;;21.53;10.57;;;8.80;99.90;;;;;;5061513;28;20207;-95
2022/10/28 06:07:57;;;;;;;18.30;9.70;;;8.90;99.90;;;;;;5062520;28;20243;-92
2022/10/28 06:10:24;;;;;;;22.63;9.77;;;;;;;;;;5031095;28;20197;-90
2022/10/28 06:12:50;;;;;;;24.30;11.47;;;;;;;;;;5057835;28;20645;-94
2022/10/28 06:15:16;;;;;;;24.00;10.50;;;;;;;;;;5038662;28;20207;-93
2022/10/28 06:17:42;;;;;;;24.07;10.13;;;;;;;;;;5037428;28;20177;-93
2022/10/28 06:20:08;;;;;;;31.00;11.37;;;9.00;99.90;;;;;;5007340;28;20195;-95
2022/10/28 06:22:34;;;;;;;25.63;9.83;;;9.00;99.90;;;;;;5040330;28;20196;-92
2022/10/28 06:25:00;;;;;;;27.37;11.10;;;;;;;;;;5007763;28;20176;-95
2022/10/28 06:27:26;;;;;;;19.83;10.17;;;;;;;;;;5057873;28;20224;-92
2022/10/28 06:29:51;;;;;;;28.13;12.43;;;9.10;99.90;;;;;;5059406;28;20172;-89
2022/10/28 06:32:17;;;;;;;27.73;11.03;;;;;;;;;;5063236;28;20234;-89
2022/10/28 06:34:43;;;;;;;26.53;11.20;;;9.20;99.90;;;;;;5051641;28;20208;-90
2022/10/28 06:37:09;;;;;;;30.53;11.60;;;9.30;99.90;;;;;;5054924;28;20191;-89
2022/10/28 06:39:37;;;;;;;26.53;11.83;;;9.30;99.90;;;;;;5027650;28;20187;-93
2022/10/28 06:42:02;;;;;;;25.20;10.87;;;9.20;99.90;;;;;;5028998;28;20153;-94
2022/10/28 06:44:28;;;;;;;30.40;14.13;;;;;;;;;;5099383;28;20155;-91
2022/10/28 06:46:54;;;;;;;27.20;12.13;;;9.30;99.90;;;;;;5068444;28;20225;-93
2022/10/28 06:49:20;;;;;;;28.10;12.40;;;9.30;99.90;;;;;;5055151;28;20187;-89
2022/10/28 06:51:45;;;;;;;27.77;12.33;;;9.30;99.90;;;;;;5066085;28;20251;-90
2022/10/28 06:54:11;;;;;;;33.47;13.20;;;9.30;99.90;;;;;;5061106;28;20171;-89
2022/10/28 06:56:37;;;;;;;39.97;17.00;;;9.40;99.90;;;;;;5062200;28;20183;-90
2022/10/28 06:59:02;;;;;;;28.80;12.63;;;9.50;99.90;;;;;;5046592;28;20176;-89
2022/10/28 07:01:28;;;;;;;27.10;13.33;;;9.50;99.90;;;;;;5058849;28;20748;-87
2022/10/28 07:03:54;;;;;;;37.80;13.67;;;9.50;99.90;;;;;;5046951;28;20208;-88
2022/10/28 07:06:19;;;;;;;27.63;11.67;;;9.50;99.90;;;;;;5041547;28;20215;-86
2022/10/28 07:08:45;;;;;;;23.23;12.00;;;9.60;99.90;;;;;;5037159;28;20258;-87
2022/10/28 07:11:11;;;;;;;38.53;13.53;;;9.60;99.90;;;;;;5035753;28;20192;-87
2022/10/28 07:13:36;;;;;;;35.03;14.33;;;9.60;99.90;;;;;;5031625;28;20181;-89
2022/10/28 07:16:02;;;;;;;29.47;14.03;;;9.60;99.90;;;;;;5013875;28;20706;-90
2022/10/28 07:18:28;;;;;;;26.90;13.97;;;9.60;99.90;;;;;;5028646;28;20572;-89
2022/10/28 07:21:00;;;;;;;26.20;12.20;;;9.70;99.90;;;;;;5031964;28;20187;-88
2022/10/28 07:23:26;;;;;;;28.67;11.97;;;9.50;99.90;;;;;;5051662;28;20192;-87
2022/10/28 07:25:54;;;;;;;33.20;15.13;;;9.60;99.90;;;;;;5035391;28;20238;-88
2022/10/28 07:28:21;;;;;;;29.53;14.17;;;9.50;99.90;;;;;;5018904;28;20232;-87
2022/10/28 07:30:46;;;;;;;38.87;13.63;;;9.60;99.90;;;;;;5050199;28;20182;-88
2022/10/28 07:33:12;;;;;;;28.53;14.10;;;9.60;99.90;;;;;;5034218;28;20672;-88
2022/10/28 07:35:38;;;;;;;29.30;14.38;;;9.60;99.90;;;;;;5035787;28;20187;-87
2022/10/28 07:38:04;;;;;;;39.33;16.07;;;9.60;99.90;;;;;;5043188;28;20194;-88
2022/10/28 07:40:29;;;;;;;36.50;16.17;;;9.70;99.90;;;;;;5038891;28;20252;-88
2022/10/28 07:42:56;;;;;;;40.03;16.93;;;9.70;99.90;;;;;;5065095;28;20315;-90
2022/10/28 07:45:22;;;;;;;39.40;18.77;;;9.90;99.90;;;;;;5049992;28;20196;-88
2022/10/28 07:47:48;;;;;;;26.93;12.90;;;;;;;;;;5019872;28;20191;-90
2022/10/28 07:50:14;;;;;;;39.17;16.25;;;10.10;99.90;;;;;;5044944;28;20241;-88
2022/10/28 07:52:39;;;;;;;38.23;15.30;;;10.00;99.90;;;;;;5027500;28;20605;-91
2022/10/28 07:55:06;;;;;;;29.10;15.35;;;10.00;99.90;;;;;;5026263;28;20238;-83
2022/10/28 07:57:36;;;;;;;36.50;16.00;;;10.10;99.90;;;;;;5023596;28;20475;-83
2022/10/28 08:00:03;;;;;;;43.95;15.77;;;10.20;99.90;;;;;;5011861;28;20211;-83
2022/10/28 08:02:29;;;;;;;34.37;15.90;;;10.20;99.90;;;;;;5044944;28;20180;-83
2022/10/28 08:04:55;;;;;;;34.10;13.90;;;10.30;99.90;;;;;;5027388;28;20253;-84
2022/10/28 08:07:21;;;;;;;38.45;14.77;;;10.40;99.90;;;;;;5012128;28;20211;-84
2022/10/28 08:09:47;;;;;;;34.58;14.65;;;10.50;99.90;;;;;;5048947;28;20187;-83
2022/10/28 08:12:14;;;;;;;39.50;16.08;;;10.60;99.90;;;;;;5046907;28;20722;-84
2022/10/28 08:14:40;;;;;;;33.38;15.38;;;10.80;99.90;;;;;;5021507;28;20740;-85
2022/10/28 08:17:06;;;;;;;31.87;15.10;;;10.90;99.90;;;;;;5019600;28;20274;-88
2022/10/28 08:19:31;;;;;;;33.20;15.00;;;11.00;99.90;;;;;;5021169;28;20225;-87
2022/10/28 08:21:58;;;;;;;31.25;15.10;;;11.00;99.90;;;;;;5028255;28;20577;-84
2022/10/28 08:24:24;;;;;;;31.95;14.52;;;11.10;99.90;;;;;;5032920;28;20196;-86
2022/10/28 08:26:50;;;;;;;30.23;12.77;;;;;;;;;;5028260;28;20220;-85
2022/10/28 08:29:16;;;;;;;33.40;15.45;;;11.00;99.90;;;;;;5042907;28;20649;-84
2022/10/28 08:31:41;;;;;;;29.63;13.15;;;11.00;99.90;;;;;;5032098;28;20191;-85
2022/10/28 08:34:07;;;;;;;27.58;14.07;;;11.10;99.90;;;;;;5049756;28;20192;-83
2022/10/28 08:36:33;;;;;;;28.90;14.77;;;11.30;99.90;;;;;;5009242;28;20283;-86
2022/10/28 08:39:00;;;;;;;27.08;15.05;;;11.40;99.90;;;;;;5030893;28;20187;-84
2022/10/28 08:41:51;;;;;;;28.25;14.00;;;11.50;99.90;;;;;;5049325;28;20274;-85
2022/10/28 08:44:38;;;;;;;25.73;12.60;;;11.60;99.90;;;;;;5041470;28;20184;-88
2022/10/28 08:47:23;;;;;;;25.05;12.43;;;11.70;99.90;;;;;;5028582;28;20223;-87
2022/10/28 08:49:55;;;;;;;24.08;12.25;;;11.90;99.90;;;;;;5051309;28;20186;-86
2022/10/28 08:52:29;;;;;;;26.58;12.18;;;12.00;99.90;;;;;;5052393;28;20172;-89
2022/10/28 08:55:06;;;;;;;25.27;12.05;;;12.20;99.90;;;;;;5029528;28;20545;-91
2022/10/28 08:57:36;;;;;;;29.40;13.98;;;12.30;99.90;;;;;;5030640;28;20190;-89
2022/10/28 09:00:06;;;;;;;23.25;13.40;;;12.50;99.90;;;;;;5030494;28;20229;-89
2022/10/28 09:02:50;;;;;;;18.17;11.48;;;12.70;99.90;;;;;;5047632;28;20191;-90
2022/10/28 09:05:23;;;;;;;22.90;11.65;;;12.80;99.90;;;;;;5049912;28;20182;-87
2022/10/28 09:07:49;;;;;;;22.83;10.82;;;13.00;99.90;;;;;;5032803;28;20172;-87
2022/10/28 09:10:16;;;;;;;17.98;8.55;;;13.10;99.90;;;;;;5014742;28;20183;-89
2022/10/28 09:12:55;;;;;;;14.98;8.27;;;13.20;99.90;;;;;;5047753;28;20572;-88
2022/10/28 09:15:44;;;;;;;13.20;7.85;;;13.30;99.90;;;;;;5048622;28;20179;-90
2022/10/28 09:18:27;;;;;;;29.65;13.93;;;13.50;99.90;;;;;;5048176;28;20172;-87
2022/10/28 09:20:55;;;;;;;17.38;8.25;;;13.60;99.90;;;;;;5049668;28;20225;-86
2022/10/28 09:23:38;;;;;;;18.17;9.18;;;13.80;99.90;;;;;;5033007;28;20575;-88
2022/10/28 09:26:15;;;;;;;15.13;8.57;;;13.90;99.90;;;;;;5048148;28;20222;-87
2022/10/28 09:29:02;;;;;;;18.42;7.75;;;14.10;99.90;;;;;;5031488;28;20234;-85
2022/10/28 09:31:43;;;;;;;22.08;8.18;;;14.20;99.90;;;;;;5030402;28;20699;-84
2022/10/28 09:34:27;;;;;;;18.10;8.10;;;14.30;99.90;;;;;;5030428;28;20647;-89
2022/10/28 09:37:10;;;;;;;13.40;7.55;;;14.50;99.90;;;;;;5030924;28;20316;-89
2022/10/28 09:39:42;;;;;;;15.10;7.38;;;14.50;99.90;;;;;;5031582;28;20233;-84
2022/10/28 09:42:13;;;;;;;15.95;8.30;;;14.70;99.90;;;;;;5032391;28;20179;-88
2022/10/28 09:44:49;;;;;;;16.88;6.68;;;14.80;99.90;;;;;;5049791;28;20218;-88
2022/10/28 09:47:24;;;;;;;11.07;6.72;;;15.00;99.90;;;;;;5031368;28;20195;-87
2022/10/28 09:49:52;;;;;;;9.95;5.57;;;15.10;99.90;;;;;;5031343;28;20624;-87
2022/10/28 09:52:24;;;;;;;10.60;6.20;;;15.30;99.90;;;;;;5032345;28;20179;-84
2022/10/28 09:54:51;;;;;;;11.43;5.78;;;15.40;99.90;;;;;;5048176;28;20172;-87
2022/10/28 09:57:18;;;;;;;8.23;4.97;;;15.60;99.90;;;;;;5048732;28;20180;-85
2022/10/28 09:59:44;;;;;;;10.95;5.05;;;15.70;99.90;;;;;;5030446;28;20180;-89
2022/10/28 10:02:25;;;;;;;10.25;5.50;;;15.80;99.90;;;;;;5032810;28;20172;-88
2022/10/28 10:04:52;;;;;;;8.57;3.90;;;15.70;99.90;;;;;;5049190;28;20531;-87
2022/10/28 10:07:35;;;;;;;7.40;4.00;;;15.60;99.90;;;;;;5017072;28;20278;-86
2022/10/28 10:10:06;;;;;;;7.60;4.15;;;15.50;99.90;;;;;;5042766;28;20168;-88
2022/10/28 10:12:32;;;;;;;6.95;4.13;;;15.50;99.90;;;;;;5030919;28;20203;-91
2022/10/28 10:14:59;;;;;;;6.70;3.92;;;15.50;99.90;;;;;;5017270;28;20180;-88
2022/10/28 10:17:51;;;;;;;9.38;4.57;;;15.50;99.90;;;;;;5035439;28;20184;-89
2022/10/28 10:20:19;;;;;;;8.23;3.72;;;15.60;99.90;;;;;;5044086;28;20192;-92
2022/10/28 10:22:47;;;;;;;11.43;3.50;;;15.70;99.90;;;;;;5051983;28;20233;-88
2022/10/28 10:25:16;;;;;;;6.68;2.90;;;15.70;99.90;;;;;;5018413;28;20279;-88
2022/10/28 10:27:48;;;;;;;5.65;3.45;;;15.80;99.90;;;;;;5033260;28;20258;-87
2022/10/28 10:30:21;;;;;;;7.22;3.65;;;15.80;99.90;;;;;;5034289;28;20180;-89
2022/10/28 10:32:47;;;;;;;5.60;2.95;;;15.80;99.90;;;;;;5033020;28;20263;-87
2022/10/28 10:35:13;;;;;;;6.43;3.38;;;15.80;99.90;;;;;;5017483;28;20267;-87
2022/10/28 10:37:44;;;;;;;6.65;2.92;;;15.70;99.90;;;;;;5033092;28;20329;-87
2022/10/28 10:40:16;;;;;;;6.32;3.10;;;15.70;99.90;;;;;;5035003;28;20265;-87
2022/10/28 10:42:42;;;;;;;17.10;8.68;;;15.70;99.90;;;;;;5055638;28;20305;-86
2022/10/28 10:45:21;;;;;;;6.53;3.70;;;15.70;99.90;;;;;;5021365;28;20279;-86
2022/10/28 10:47:47;;;;;;;6.55;3.45;;;15.70;99.90;;;;;;5037061;28;20191;-85
2022/10/28 10:50:21;;;;;;;6.97;3.35;;;15.80;99.90;;;;;;5054371;28;20512;-85
2022/10/28 10:52:49;;;;;;;5.53;3.78;;;15.90;99.90;;;;;;5054802;28;20171;-87
2022/10/28 10:55:46;;;;;;;6.15;3.30;;;15.90;99.90;;;;;;5055868;28;20188;-88
2022/10/28 10:58:21;;;;;;;5.55;3.55;;;15.90;99.90;;;;;;5035460;28;20180;-90
2022/10/28 11:00:51;;;;;;;6.43;3.33;;;15.90;99.90;;;;;;5055086;28;20164;-91
2022/10/28 11:03:40;;;;;;;4.57;3.42;;;16.00;99.90;;;;;;5054885;28;20179;-90
2022/10/28 11:06:07;;;;;;;7.68;3.92;;;15.90;99.90;;;;;;5035688;28;20223;-90
2022/10/28 11:08:33;;;;;;;8.50;3.72;;;15.90;99.90;;;;;;5037589;28;20738;-90
2022/10/28 11:11:19;;;;;;;4.70;3.28;;;16.00;99.90;;;;;;5036429;28;20225;-87
2022/10/28 11:13:46;;;;;;;4.72;2.90;;;16.10;99.90;;;;;;5036178;28;20183;-89
2022/10/28 11:16:23;;;;;;;7.13;3.97;;;16.10;99.90;;;;;;5054985;28;20269;-86
2022/10/28 11:18:51;;;;;;;5.97;3.22;;;16.10;99.90;;;;;;5037041;28;20171;-88
2022/10/28 11:21:41;;;;;;;7.25;3.30;;;16.10;99.90;;;;;;5037026;28;20305;-90
2022/10/28 11:24:25;;;;;;;6.60;3.05;;;16.10;99.90;;;;;;5036439;28;20176;-91
2022/10/28 11:27:02;;;;;;;6.38;3.63;;;16.00;99.90;;;;;;5036316;28;20207;-86
2022/10/28 11:29:28;;;;;;;5.88;3.17;;;16.10;99.90;;;;;;5036812;28;20266;-90
2022/10/28 11:32:23;;;;;;;8.43;3.42;;;16.10;99.90;;;;;;5036473;28;20213;-88
2022/10/28 11:35:05;;;;;;;5.53;3.60;;;16.10;99.90;;;;;;5033274;28;20219;-91
2022/10/28 11:37:42;;;;;;;10.30;4.10;;;16.10;99.90;;;;;;5054390;28;20195;-88
2022/10/28 11:40:27;;;;;;;7.88;3.17;;;16.10;99.90;;;;;;5036044;28;20601;-89
2022/10/28 11:43:15;;;;;;;9.68;3.55;;;16.10;99.90;;;;;;5054457;28;20160;-89
2022/10/28 11:46:14;;;;;;;6.85;3.95;;;16.10;99.90;;;;;;5036147;28;20621;-89
2022/10/28 11:49:11;;;;;;;6.90;4.05;;;16.10;99.90;;;;;;5054001;28;20763;-89
2022/10/28 11:51:56;;;;;;;10.60;3.65;;;16.20;99.90;;;;;;4996082;28;20562;-88
2022/10/28 11:54:59;;;;;;;9.57;4.85;;;16.40;99.90;;;;;;5035781;28;20176;-86
2022/10/28 11:57:47;;;;;;;6.00;3.45;;;16.80;99.90;;;;;;5053860;28;20179;-88
2022/10/28 12:00:36;;;;;;;6.57;3.78;;;16.90;99.90;;;;;;5053733;28;20176;-87
2022/10/28 12:03:11;;;;;;;7.55;4.35;;;17.20;99.90;;;;;;5034849;28;20187;-87
2022/10/28 12:05:50;;;;;;;6.28;3.72;;;17.20;99.90;;;;;;5035666;28;20187;-88
2022/10/28 12:08:49;;;;;;;6.25;3.60;;;17.20;99.90;;;;;;5035810;28;20187;-88
2022/10/28 12:11:39;;;;;;;9.70;4.05;;;17.10;99.90;;;;;;5044006;28;20184;-89
2022/10/28 12:14:29;;;;;;;5.80;3.25;;;17.00;99.90;;;;;;5038410;28;20274;-91
2022/10/28 12:17:16;;;;;;;11.82;4.00;;;17.00;99.90;;;;;;5043405;28;20218;-96
2022/10/28 12:20:05;;;;;;;6.00;3.95;;;17.00;99.90;;;;;;5048792;28;20252;-93
2022/10/28 12:22:31;;;;;;;9.25;4.50;;;16.80;99.90;;;;;;5257371;22;20219;-93
2022/10/28 12:25:06;;;;;;;7.45;4.40;;;16.80;99.90;;;;;;5089058;28;20170;-95
2022/10/28 12:27:36;;;;;;;9.77;3.88;;;16.80;99.90;;;;;;5083018;28;20202;-94
2022/10/28 12:30:33;;;;;;;18.50;4.05;;;16.80;99.90;;;;;;5077958;28;20186;-93
2022/10/28 12:33:24;;;;;;;6.28;3.42;;;16.70;99.90;;;;;;5079672;28;20206;-95
2022/10/28 12:35:52;;;;;;;9.02;3.90;;;17.50;99.90;;;;;;5077861;28;20523;-93
2022/10/28 12:38:45;;;;;;;8.52;3.50;;;16.60;99.90;;;;;;5067709;28;20195;-94
2022/10/28 12:41:19;;;;;;;10.43;3.38;;;17.10;99.90;;;;;;5051694;28;20275;-91
2022/10/28 12:44:10;;;;;;;6.18;3.55;;;16.70;99.90;;;;;;5060795;28;20168;-94
2022/10/28 12:47:06;;;;;;;7.13;4.22;;;17.00;99.90;;;;;;5069333;28;20203;-94
2022/10/28 12:49:49;;;;;;;5.20;3.40;;;17.40;99.90;;;;;;5078443;28;20167;-93
2022/10/28 12:52:37;;;;;;;6.10;3.45;;;17.50;99.90;;;;;;5078022;28;20160;-91
2022/10/28 12:55:12;;;;;;;9.52;3.85;;;17.80;99.90;;;;;;5077506;28;20266;-92
2022/10/28 12:57:44;;;;;;;5.80;3.88;;;18.30;99.90;;;;;;5077869;28;20235;-93
2022/10/28 13:00:20;;;;;;;7.35;3.88;;;18.70;99.90;;;;;;5077573;28;20175;-92
2022/10/28 13:03:13;;;;;;;8.07;3.42;;;18.70;99.90;;;;;;5078486;28;20231;-93
2022/10/28 13:05:53;;;;;;;7.13;4.03;;;19.50;99.90;;;;;;5074681;28;20211;-93
2022/10/28 13:08:37;;;;;;;9.23;3.78;;;19.40;99.90;;;;;;5096820;28;20220;-93
2022/10/28 13:11:33;;;;;;;7.30;3.47;;;20.40;99.90;;;;;;5087840;28;20200;-93
2022/10/28 13:14:25;;;;;;;6.75;3.90;;;20.10;99.90;;;;;;5083457;28;20645;-93
2022/10/28 13:17:19;;;;;;;8.38;3.95;;;21.30;99.90;;;;;;5093647;28;20171;-94
2022/10/28 13:20:21;;;;;;;5.72;3.72;;;21.50;99.90;;;;;;5079536;28;20158;-94
2022/10/28 13:22:59;;;;;;;6.82;4.30;;;21.50;99.90;;;;;;5077086;28;20209;-94
2022/10/28 13:25:40;;;;;;;9.70;3.85;;;21.70;99.90;;;;;;5078765;28;20257;-92
2022/10/28 13:28:14;;;;;;;7.63;3.95;;;21.50;99.90;;;;;;5078651;28;20164;-94
2022/10/28 13:30:56;;;;;;;5.68;3.83;;;21.50;99.90;;;;;;5069795;28;20194;-95
2022/10/28 13:33:27;;;;;;;7.28;4.45;;;21.90;99.90;;;;;;5079189;28;20159;-95
2022/10/28 13:36:22;;;;;;;10.35;3.85;;;22.10;99.90;;;;;;5077616;28;20544;-94